Terminal Aerodrome Forecast
Issued by NWS Caribou, ME

Current Version | Previous Version | Text Only | Print | Product List | Glossary On
Versions: 1 2 3 4 5 6 7 8 9 10 11 12 13 14 15 16 17 18 19 20
000 FTUS41 KCAR 170500 RRA TAFCAR TAF KCAR 170559Z 1706/1806 22005KT 6SM BR BKN250 FM171300 28004KT P6SM BKN030 FM171800 31009KT P6SM VCSH BKN040 FM172100 34004KT P6SM BKN050=

USA.gov is the U.S. government's official web portal to all federal, state and local government web resources and services.